createdAt,value
2023-03-01T00:00:59.280Z,0.00
2023-03-01T00:03:29.582Z,0.20
2023-03-01T00:06:05.274Z,0.00
2023-03-01T00:08:40.368Z,0.00
2023-03-01T00:11:16.987Z,-0.10
2023-03-01T00:13:48.032Z,-0.10
2023-03-01T00:16:27.026Z,-0.10
2023-03-01T00:18:58.633Z,-0.20
2023-03-01T00:21:33.942Z,-0.20
2023-03-01T00:24:03.827Z,-0.10
2023-03-01T00:26:39.038Z,-0.20
2023-03-01T00:29:07.387Z,-0.30
2023-03-01T00:31:42.988Z,-0.40
2023-03-01T00:34:13.620Z,-0.30
2023-03-01T00:36:49.272Z,-0.40
2023-03-01T00:39:18.199Z,-0.40
2023-03-01T00:41:53.346Z,-0.40
2023-03-01T00:44:22.110Z,-0.30
2023-03-01T00:46:57.078Z,-0.50
2023-03-01T00:49:28.699Z,-0.50
2023-03-01T00:52:04.055Z,-0.50
2023-03-01T00:54:32.899Z,-0.50
2023-03-01T00:57:08.073Z,-0.50
2023-03-01T00:59:36.797Z,-0.50
2023-03-01T01:02:12.359Z,-0.50
2023-03-01T01:04:42.629Z,-0.50
2023-03-01T01:07:18.366Z,-0.60
2023-03-01T01:09:47.524Z,-0.60
2023-03-01T01:12:22.090Z,-0.60
2023-03-01T01:14:50.922Z,-0.60
2023-03-01T01:17:26.069Z,-0.70
2023-03-01T01:19:56.217Z,-0.60
2023-03-01T01:22:31.330Z,-0.60
2023-03-01T01:24:59.966Z,-0.70
2023-03-01T01:27:35.032Z,-0.70
2023-03-01T01:30:03.518Z,-0.70
2023-03-01T01:32:39.140Z,-0.60
2023-03-01T01:35:10.104Z,-0.70
2023-03-01T01:37:45.060Z,-0.70
2023-03-01T01:40:14.736Z,-0.80
2023-03-01T01:42:50.082Z,-0.80
2023-03-01T01:45:32.335Z,-0.80
2023-03-01T01:48:13.115Z,-0.80
2023-03-01T01:50:46.286Z,-0.80
2023-03-01T01:53:25.097Z,-0.80
2023-03-01T01:55:58.179Z,-0.80
2023-03-01T01:58:35.108Z,-0.80
2023-03-01T02:01:04.241Z,-0.80
2023-03-01T02:03:45.529Z,-0.80
2023-03-01T02:06:28.684Z,-0.80
2023-03-01T02:09:01.812Z,-0.80
2023-03-01T02:11:40.374Z,-0.90
2023-03-01T02:14:09.866Z,-0.70
2023-03-01T02:16:45.202Z,-0.90
2023-03-01T02:19:28.342Z,-0.90
2023-03-01T02:22:15.160Z,-0.90
2023-03-01T02:24:52.774Z,-0.90
2023-03-01T02:27:52.411Z,-0.90
2023-03-01T02:30:31.544Z,-1.00
2023-03-01T02:33:12.390Z,-1.00
2023-03-01T02:35:43.122Z,-1.10
2023-03-01T02:38:18.402Z,-1.10
2023-03-01T02:40:47.625Z,-1.10
2023-03-01T02:43:23.394Z,-1.20
2023-03-01T02:45:55.326Z,-1.20
2023-03-01T02:48:31.369Z,-1.30
2023-03-01T02:51:10.657Z,-1.30
2023-03-01T02:53:54.096Z,-1.30
2023-03-01T02:56:22.902Z,-1.30
2023-03-01T02:58:59.146Z,-1.30
2023-03-01T03:01:39.024Z,-1.30
2023-03-01T03:04:25.165Z,-1.30
2023-03-01T03:07:02.009Z,-1.30
2023-03-01T03:09:38.441Z,-1.30
2023-03-01T03:12:07.806Z,-1.40
2023-03-01T03:14:43.434Z,-1.40
2023-03-01T03:17:14.562Z,-1.40
2023-03-01T03:19:54.648Z,-1.30
2023-03-01T03:22:25.130Z,-1.50
2023-03-01T03:25:00.457Z,-1.50
2023-03-01T03:27:30.092Z,-1.50
2023-03-01T03:30:05.835Z,-1.50
2023-03-01T03:32:36.642Z,-1.50
2023-03-01T03:35:17.526Z,-1.50
2023-03-01T03:38:04.187Z,-1.50
2023-03-01T03:40:41.086Z,-1.50
2023-03-01T03:43:11.946Z,-1.60
2023-03-01T03:45:47.248Z,-1.50
2023-03-01T03:48:18.780Z,-1.60
2023-03-01T03:50:58.700Z,-1.60
2023-03-01T03:53:30.060Z,-1.60
2023-03-01T03:56:06.711Z,-1.60
2023-03-01T03:58:35.781Z,-1.60
2023-03-01T04:01:12.225Z,-1.40
2023-03-01T04:03:48.952Z,-1.60
2023-03-01T04:06:32.178Z,-1.60
2023-03-01T04:09:08.525Z,-1.60
2023-03-01T04:11:37.543Z,-1.70
2023-03-01T04:14:13.480Z,-1.50
2023-03-01T04:16:42.182Z,-1.70
2023-03-01T04:19:19.449Z,-1.80
2023-03-01T04:21:48.005Z,-1.80
2023-03-01T04:24:23.496Z,-1.80
2023-03-01T04:26:52.222Z,-1.80
2023-03-01T04:29:28.205Z,-1.90
2023-03-01T04:31:56.997Z,-1.90
2023-03-01T04:34:37.430Z,-1.80
2023-03-01T04:37:07.364Z,-1.90
2023-03-01T04:39:53.514Z,-1.80
2023-03-01T04:42:22.187Z,-1.80
2023-03-01T04:44:59.477Z,-1.80
2023-03-01T04:47:28.238Z,-1.80
2023-03-01T04:50:05.634Z,-1.90
2023-03-01T04:52:34.515Z,-1.90
2023-03-01T04:55:09.504Z,-1.70
2023-03-01T04:57:38.568Z,-1.90
2023-03-01T05:00:27.571Z,-1.90
2023-03-01T05:03:03.906Z,-1.90
2023-03-01T05:05:48.286Z,-2.00
2023-03-01T05:08:19.933Z,-2.00
2023-03-01T05:10:57.539Z,-2.00
2023-03-01T05:13:26.316Z,-2.10
2023-03-01T05:16:04.331Z,-2.10
2023-03-01T05:18:34.725Z,-2.10
2023-03-01T05:21:14.563Z,-2.10
2023-03-01T05:23:43.405Z,-2.10
2023-03-01T05:26:28.966Z,-2.10
2023-03-01T05:29:00.752Z,-2.10
2023-03-01T05:31:38.329Z,-2.20
2023-03-01T05:34:08.226Z,-2.20
2023-03-01T05:36:46.180Z,-2.20
2023-03-01T05:39:15.754Z,-2.20
2023-03-01T05:41:51.519Z,-2.20
2023-03-01T05:44:20.968Z,-2.30
2023-03-01T05:46:58.992Z,-2.30
2023-03-01T05:49:28.938Z,-2.30
2023-03-01T05:52:08.537Z,-2.30
2023-03-01T05:54:37.511Z,-2.30
2023-03-01T05:57:12.307Z,-2.30
2023-03-01T05:59:47.576Z,-2.30
2023-03-01T06:02:22.939Z,-2.30
2023-03-01T06:05:04.685Z,-2.30
2023-03-01T06:07:41.575Z,-2.30
2023-03-01T06:10:11.569Z,-2.30
2023-03-01T06:12:48.879Z,-2.30
2023-03-01T06:15:21.327Z,-2.30
2023-03-01T06:17:58.218Z,-2.30
2023-03-01T06:20:36.385Z,-2.00
2023-03-01T06:23:09.079Z,-2.30
2023-03-01T06:25:47.518Z,-2.30
2023-03-01T06:28:17.080Z,-2.30
2023-03-01T06:30:46.630Z,-2.30
2023-03-01T06:33:23.379Z,-2.20
2023-03-01T06:35:58.389Z,-2.30
2023-03-01T06:38:29.047Z,-2.30
2023-03-01T06:41:07.627Z,-2.30
2023-03-01T06:43:36.271Z,-2.10
2023-03-01T06:46:14.623Z,-2.30
2023-03-01T06:48:43.435Z,-2.30
2023-03-01T06:51:20.352Z,-2.20
2023-03-01T06:53:56.653Z,-2.20
2023-03-01T06:56:26.265Z,-2.20
2023-03-01T06:59:02.629Z,-2.20
2023-03-01T07:01:38.411Z,-2.20
2023-03-01T07:04:21.174Z,-2.20
2023-03-01T07:07:02.861Z,-2.20
2023-03-01T07:09:39.415Z,-2.20
2023-03-01T07:12:09.644Z,-2.10
2023-03-01T07:14:44.351Z,-2.10
2023-03-01T07:17:16.409Z,-2.10
2023-03-01T07:19:54.501Z,-2.00
2023-03-01T07:22:36.031Z,-2.00
2023-03-01T07:25:06.981Z,-2.00
2023-03-01T07:27:42.339Z,-1.90
2023-03-01T07:30:19.609Z,-1.90
2023-03-01T07:32:52.395Z,-1.80
2023-03-01T07:35:28.658Z,-1.80
2023-03-01T07:37:57.442Z,-1.80
2023-03-01T07:40:27.508Z,-1.80
2023-03-01T07:43:05.450Z,-1.70
2023-03-01T07:45:35.708Z,-1.70
2023-03-01T07:48:13.679Z,-1.60
2023-03-01T07:50:42.732Z,-1.40
2023-03-01T07:53:11.560Z,-1.50
2023-03-01T07:55:50.407Z,-1.40
2023-03-01T07:58:20.287Z,-1.30
2023-03-01T08:00:56.010Z,-1.30
2023-03-01T08:03:43.420Z,-1.20
2023-03-01T08:06:19.625Z,-1.10
2023-03-01T08:08:48.842Z,-1.00
2023-03-01T08:11:25.798Z,-0.90
2023-03-01T08:13:55.383Z,-0.90
2023-03-01T08:16:30.719Z,-0.80
2023-03-01T08:19:02.642Z,-0.70
2023-03-01T08:21:37.429Z,-0.70
2023-03-01T08:24:18.640Z,-0.60
2023-03-01T08:26:55.649Z,-0.50
2023-03-01T08:29:33.216Z,-0.40
2023-03-01T08:32:02.269Z,-0.40
2023-03-01T08:34:38.483Z,-0.20
2023-03-01T08:37:11.211Z,-0.20
2023-03-01T08:39:46.693Z,-0.10
2023-03-01T08:42:17.082Z,0.10
2023-03-01T08:44:52.443Z,0.00
2023-03-01T08:47:21.273Z,0.10
2023-03-01T08:49:57.480Z,0.20
2023-03-01T08:52:26.394Z,0.20
2023-03-01T08:55:02.746Z,0.30
2023-03-01T08:57:32.614Z,0.40
2023-03-01T09:00:07.478Z,0.50
2023-03-01T09:02:36.400Z,0.60
2023-03-01T09:05:20.283Z,0.60
2023-03-01T09:07:49.301Z,0.80
2023-03-01T09:10:25.458Z,0.70
2023-03-01T09:13:03.545Z,0.80
2023-03-01T09:15:38.468Z,0.90
2023-03-01T09:18:07.637Z,1.00
2023-03-01T09:20:42.816Z,1.10
2023-03-01T09:23:11.722Z,1.20
2023-03-01T09:25:47.470Z,1.30
2023-03-01T09:28:29.105Z,1.30
2023-03-01T09:31:07.491Z,1.40
2023-03-01T09:33:37.413Z,1.50
2023-03-01T09:36:14.813Z,1.50
2023-03-01T09:38:43.789Z,1.60
2023-03-01T09:41:28.747Z,1.70
2023-03-01T09:44:05.998Z,1.70
2023-03-01T09:46:46.551Z,1.80
2023-03-01T09:49:20.407Z,1.90
2023-03-01T09:52:05.901Z,2.00
2023-03-01T09:54:35.490Z,2.10
2023-03-01T09:57:27.570Z,2.20
2023-03-01T10:00:23.039Z,2.30
2023-03-01T10:03:02.485Z,2.40
2023-03-01T10:05:47.306Z,2.50
2023-03-01T10:08:41.746Z,2.60
2023-03-01T10:11:25.087Z,2.70
2023-03-01T10:14:07.768Z,2.80
2023-03-01T10:16:45.070Z,2.80
2023-03-01T10:19:24.772Z,3.00
2023-03-01T10:21:55.030Z,3.10
2023-03-01T10:24:30.813Z,3.20
2023-03-01T10:27:04.798Z,3.30
2023-03-01T10:29:51.788Z,3.40
2023-03-01T10:32:25.083Z,3.40
2023-03-01T10:35:00.557Z,3.50
2023-03-01T10:37:29.717Z,3.70
2023-03-01T10:40:07.795Z,3.80
2023-03-01T10:42:39.041Z,3.80
2023-03-01T10:45:43.793Z,4.00
2023-03-01T10:48:24.763Z,4.10
2023-03-01T10:51:16.476Z,4.10
2023-03-01T10:53:57.563Z,4.00
2023-03-01T10:56:26.808Z,4.10
2023-03-01T10:59:07.794Z,4.20
2023-03-01T11:01:39.250Z,4.20
2023-03-01T11:04:24.693Z,4.30
2023-03-01T11:07:08.141Z,4.30
2023-03-01T11:09:46.449Z,4.40
2023-03-01T11:12:18.677Z,4.50
2023-03-01T11:14:58.599Z,4.60
2023-03-01T11:17:36.621Z,4.70
2023-03-01T11:20:30.203Z,4.80
2023-03-01T11:23:02.423Z,4.80
2023-03-01T11:25:42.378Z,4.80
2023-03-01T11:28:17.286Z,4.80
2023-03-01T11:31:08.526Z,4.90
2023-03-01T11:33:47.504Z,5.10
2023-03-01T11:36:33.887Z,5.30
2023-03-01T11:39:15.844Z,5.30
2023-03-01T11:41:51.581Z,5.50
2023-03-01T11:44:27.529Z,5.60
2023-03-01T11:47:27.885Z,5.50
2023-03-01T11:50:22.330Z,5.80
2023-03-01T11:53:08.828Z,6.00
2023-03-01T11:56:01.138Z,6.00
2023-03-01T11:58:51.597Z,6.00
2023-03-01T12:01:42.278Z,6.10
2023-03-01T12:05:00.834Z,6.00
2023-03-01T12:07:40.296Z,6.00
2023-03-01T12:10:50.986Z,6.20
2023-03-01T12:13:42.563Z,6.30
2023-03-01T12:16:39.575Z,6.30
2023-03-01T12:19:28.064Z,6.40
2023-03-01T12:22:24.876Z,6.50
2023-03-01T12:25:18.783Z,6.60
2023-03-01T12:28:13.651Z,6.40
2023-03-01T12:31:00.536Z,6.20
2023-03-01T12:33:47.878Z,6.00
2023-03-01T12:36:32.051Z,6.10
2023-03-01T12:39:20.380Z,6.10
2023-03-01T12:42:01.722Z,6.20
2023-03-01T12:45:02.635Z,6.30
2023-03-01T12:47:51.228Z,6.30
2023-03-01T12:50:29.918Z,6.30
2023-03-01T12:52:59.671Z,6.40
2023-03-01T12:55:38.649Z,6.40
2023-03-01T12:58:16.178Z,6.40
2023-03-01T13:01:01.711Z,6.30
2023-03-01T13:04:14.673Z,6.40
2023-03-01T13:07:05.435Z,6.60
2023-03-01T13:09:47.976Z,6.70
2023-03-01T13:12:48.675Z,6.70
2023-03-01T13:15:55.760Z,6.90
2023-03-01T13:18:35.916Z,6.90
2023-03-01T13:21:13.700Z,7.00
2023-03-01T13:23:49.973Z,7.10
2023-03-01T13:26:20.499Z,7.00
2023-03-01T13:29:04.935Z,6.90
2023-03-01T13:32:06.014Z,7.10
2023-03-01T13:35:08.732Z,7.10
2023-03-01T13:37:39.440Z,7.00
2023-03-01T13:40:50.705Z,6.90
2023-03-01T13:43:33.911Z,6.80
2023-03-01T13:46:12.136Z,6.90
2023-03-01T13:48:46.343Z,7.10
2023-03-01T13:51:21.989Z,7.10
2023-03-01T13:53:50.956Z,7.20
2023-03-01T13:56:29.298Z,7.00
2023-03-01T13:59:03.146Z,7.00
2023-03-01T14:01:41.141Z,6.90
2023-03-01T14:04:38.990Z,6.80
2023-03-01T14:07:15.304Z,6.70
2023-03-01T14:09:53.993Z,6.80
2023-03-01T14:12:36.240Z,6.90
2023-03-01T14:15:15.960Z,6.80
2023-03-01T14:17:55.066Z,7.00
2023-03-01T14:20:34.736Z,6.90
2023-03-01T14:23:11.470Z,6.80
2023-03-01T14:25:47.702Z,6.90
2023-03-01T14:28:19.677Z,6.90
2023-03-01T14:30:57.029Z,6.80
2023-03-01T14:33:28.357Z,6.70
2023-03-01T14:36:08.045Z,6.60
2023-03-01T14:38:39.395Z,6.60
2023-03-01T14:41:18.021Z,6.70
2023-03-01T14:43:49.874Z,6.60
2023-03-01T14:46:31.265Z,6.60
2023-03-01T14:49:08.699Z,6.50
2023-03-01T14:51:50.796Z,6.60
2023-03-01T14:54:26.122Z,6.60
2023-03-01T14:57:02.990Z,6.60
2023-03-01T14:59:31.722Z,6.60
2023-03-01T15:02:07.765Z,6.60
2023-03-01T15:04:45.237Z,6.60
2023-03-01T15:07:23.058Z,6.60
2023-03-01T15:09:51.892Z,6.60
2023-03-01T15:12:47.805Z,6.60
2023-03-01T15:15:35.784Z,6.50
2023-03-01T15:18:12.793Z,6.50
2023-03-01T15:20:42.470Z,6.50
2023-03-01T15:23:30.036Z,6.50
2023-03-01T15:25:59.688Z,6.40
2023-03-01T15:28:38.006Z,6.40
2023-03-01T15:31:20.743Z,6.40
2023-03-01T15:33:55.829Z,6.40
2023-03-01T15:36:41.047Z,6.30
2023-03-01T15:40:01.944Z,6.30
2023-03-01T15:42:40.811Z,6.30
2023-03-01T15:45:21.889Z,6.30
2023-03-01T15:47:52.974Z,6.30
2023-03-01T15:50:30.799Z,6.30
2023-03-01T15:53:02.612Z,6.30
2023-03-01T15:55:41.066Z,6.30
2023-03-01T15:58:17.111Z,6.30
2023-03-01T16:01:00.835Z,6.20
2023-03-01T16:03:30.394Z,6.20
2023-03-01T16:06:12.123Z,6.10
2023-03-01T16:08:43.119Z,6.10
2023-03-01T16:11:27.055Z,6.10
2023-03-01T16:13:55.618Z,5.90
2023-03-01T16:16:31.599Z,6.00
2023-03-01T16:19:00.442Z,6.00
2023-03-01T16:21:36.053Z,6.00
2023-03-01T16:24:04.931Z,6.00
2023-03-01T16:26:41.833Z,6.00
2023-03-01T16:29:10.766Z,6.00
2023-03-01T16:31:46.148Z,6.00
2023-03-01T16:34:15.381Z,6.00
2023-03-01T16:36:52.129Z,6.00
2023-03-01T16:39:20.950Z,6.00
2023-03-01T16:41:57.875Z,6.00
2023-03-01T16:44:27.264Z,5.90
2023-03-01T16:47:01.841Z,5.90
2023-03-01T16:49:30.282Z,5.80
2023-03-01T16:52:05.832Z,5.70
2023-03-01T16:54:34.724Z,5.70
2023-03-01T16:57:12.144Z,5.60
2023-03-01T16:59:41.360Z,5.50
2023-03-01T17:02:20.123Z,5.50
2023-03-01T17:05:04.090Z,5.50
2023-03-01T17:07:40.880Z,5.40
2023-03-01T17:10:11.785Z,5.40
2023-03-01T17:12:48.880Z,5.30
2023-03-01T17:15:18.028Z,5.30
2023-03-01T17:17:54.896Z,5.20
2023-03-01T17:20:24.093Z,5.20
2023-03-01T17:22:59.184Z,5.10
2023-03-01T17:25:27.675Z,5.10
2023-03-01T17:28:03.864Z,5.00
2023-03-01T17:30:32.803Z,5.00
2023-03-01T17:33:08.356Z,5.00
2023-03-01T17:35:38.181Z,5.00
2023-03-01T17:38:13.869Z,4.90
2023-03-01T17:40:42.943Z,4.90
2023-03-01T17:43:20.479Z,4.80
2023-03-01T17:45:51.789Z,4.80
2023-03-01T17:48:28.281Z,4.70
2023-03-01T17:50:57.334Z,4.70
2023-03-01T17:53:32.277Z,4.70
2023-03-01T17:56:11.961Z,4.60
2023-03-01T17:58:42.286Z,4.50
2023-03-01T18:01:21.038Z,4.50
2023-03-01T18:03:53.634Z,4.50
2023-03-01T18:06:36.992Z,4.40
2023-03-01T18:09:05.953Z,4.40
2023-03-01T18:11:41.866Z,4.40
2023-03-01T18:14:12.951Z,4.30
2023-03-01T18:16:49.066Z,4.30
2023-03-01T18:19:18.174Z,4.20
2023-03-01T18:21:53.174Z,4.20
2023-03-01T18:24:23.770Z,4.20
2023-03-01T18:26:59.273Z,4.20
2023-03-01T18:29:30.193Z,4.10
2023-03-01T18:32:05.034Z,4.10
2023-03-01T18:34:35.159Z,4.10
2023-03-01T18:37:10.982Z,4.10
2023-03-01T18:39:42.064Z,4.00
2023-03-01T18:42:16.976Z,4.00
2023-03-01T18:44:47.877Z,3.90
2023-03-01T18:47:27.097Z,3.80
2023-03-01T18:49:55.610Z,3.80
2023-03-01T18:52:31.290Z,3.70
2023-03-01T18:54:59.724Z,3.70
2023-03-01T18:57:35.224Z,3.60
2023-03-01T19:00:06.567Z,3.60
2023-03-01T19:02:42.012Z,3.50
2023-03-01T19:05:18.732Z,3.50
2023-03-01T19:08:02.114Z,3.50
2023-03-01T19:10:31.901Z,3.40
2023-03-01T19:13:07.282Z,3.40
2023-03-01T19:15:37.405Z,3.40
2023-03-01T19:18:13.320Z,3.40
2023-03-01T19:20:41.846Z,3.30
2023-03-01T19:23:17.733Z,3.30
2023-03-01T19:25:47.165Z,3.30
2023-03-01T19:28:23.106Z,3.30
2023-03-01T19:30:53.276Z,3.30
2023-03-01T19:33:30.066Z,3.30
2023-03-01T19:35:59.291Z,3.30
2023-03-01T19:38:36.252Z,3.30
2023-03-01T19:41:08.380Z,3.20
2023-03-01T19:43:44.356Z,3.20
2023-03-01T19:46:15.120Z,3.20
2023-03-01T19:48:52.256Z,3.20
2023-03-01T19:51:21.095Z,3.20
2023-03-01T19:53:56.009Z,3.20
2023-03-01T19:56:24.746Z,3.20
2023-03-01T19:59:07.074Z,3.10
2023-03-01T20:01:38.238Z,3.10
2023-03-01T20:04:16.070Z,3.10
2023-03-01T20:06:53.809Z,3.10
2023-03-01T20:09:29.298Z,3.00
2023-03-01T20:11:58.509Z,3.00
2023-03-01T20:14:34.019Z,3.00
2023-03-01T20:17:04.431Z,2.90
2023-03-01T20:19:40.157Z,2.90
2023-03-01T20:22:09.069Z,2.90
2023-03-01T20:24:44.328Z,2.80
2023-03-01T20:27:12.918Z,2.80
2023-03-01T20:29:48.066Z,2.80
2023-03-01T20:32:18.885Z,2.80
2023-03-01T20:34:54.275Z,2.70
2023-03-01T20:37:23.627Z,2.70
2023-03-01T20:39:59.044Z,2.70
2023-03-01T20:42:27.586Z,2.70
2023-03-01T20:45:03.182Z,2.70
2023-03-01T20:47:33.530Z,2.70
2023-03-01T20:50:10.089Z,2.70
2023-03-01T20:52:47.073Z,2.70
2023-03-01T20:55:23.154Z,2.70
2023-03-01T20:57:51.918Z,2.70
2023-03-01T21:00:28.322Z,2.70
2023-03-01T21:02:58.696Z,2.60
2023-03-01T21:05:40.348Z,2.70
2023-03-01T21:08:16.080Z,2.60
2023-03-01T21:10:51.308Z,2.50
2023-03-01T21:13:20.274Z,2.50
2023-03-01T21:16:01.150Z,2.50
2023-03-01T21:18:32.276Z,2.50
2023-03-01T21:21:08.061Z,2.50
2023-03-01T21:23:38.491Z,2.40
2023-03-01T21:26:16.415Z,2.40
2023-03-01T21:28:45.241Z,2.40
2023-03-01T21:31:22.539Z,2.40
2023-03-01T21:33:54.520Z,2.40
2023-03-01T21:36:32.839Z,2.50
2023-03-01T21:39:03.071Z,2.40
2023-03-01T21:41:40.092Z,2.40
2023-03-01T21:44:09.191Z,2.50
2023-03-01T21:46:46.379Z,2.40
2023-03-01T21:49:16.647Z,2.40
2023-03-01T21:51:52.449Z,2.40
2023-03-01T21:54:21.829Z,2.40
2023-03-01T21:56:58.352Z,2.40
2023-03-01T21:59:28.446Z,2.40
2023-03-01T22:02:03.347Z,2.30
2023-03-01T22:04:53.061Z,2.30
2023-03-01T22:07:28.073Z,2.30
2023-03-01T22:09:58.118Z,2.20
2023-03-01T22:12:33.413Z,2.40
2023-03-01T22:15:02.218Z,2.20
2023-03-01T22:17:37.221Z,2.20
2023-03-01T22:20:16.134Z,2.20
2023-03-01T22:22:44.984Z,2.20
2023-03-01T22:25:21.359Z,2.20
2023-03-01T22:27:50.210Z,2.10
2023-03-01T22:30:28.767Z,2.10
2023-03-01T22:32:57.238Z,2.10
2023-03-01T22:35:34.195Z,2.10
2023-03-01T22:38:02.795Z,2.30
2023-03-01T22:40:39.201Z,2.30
2023-03-01T22:43:09.460Z,2.10
2023-03-01T22:45:44.419Z,2.10
2023-03-01T22:48:13.070Z,2.00
2023-03-01T22:50:52.191Z,2.00
2023-03-01T22:53:21.181Z,2.00
2023-03-01T22:55:57.462Z,1.90
2023-03-01T22:58:26.316Z,1.90
2023-03-01T23:01:02.421Z,1.90
2023-03-01T23:03:31.144Z,1.80
2023-03-01T23:06:15.226Z,1.80
2023-03-01T23:08:43.821Z,1.80
2023-03-01T23:11:23.402Z,1.70
2023-03-01T23:13:52.470Z,1.70
2023-03-01T23:16:32.495Z,1.70
2023-03-01T23:19:01.851Z,1.70
2023-03-01T23:21:38.471Z,1.60
2023-03-01T23:24:08.008Z,1.60
2023-03-01T23:26:43.099Z,1.60
2023-03-01T23:29:13.270Z,1.60
2023-03-01T23:31:48.147Z,1.60
2023-03-01T23:34:16.812Z,1.60
2023-03-01T23:36:53.208Z,1.60
2023-03-01T23:39:23.002Z,1.60
2023-03-01T23:41:58.134Z,1.60
2023-03-01T23:44:27.750Z,1.50
2023-03-01T23:47:03.509Z,1.50
2023-03-01T23:49:32.347Z,1.50
2023-03-01T23:52:09.206Z,1.40
2023-03-01T23:54:37.998Z,1.40
2023-03-01T23:57:13.446Z,1.40
2023-03-01T23:59:44.008Z,1.40
